Terminal Aerodrome Forecast
Issued by NWS Portland, OR

Current Version | Previous Version | Text Only | Print | Product List | Glossary On
Versions: 1 2 3 4 5 6 7 8 9 10 11 12 13 14
000
FTUS46 KPQR 221723
TAFHIO
TAF
KHIO 221723Z 2218/2318 VRB03KT P6SM BKN300
     FM222000 03007KT P6SM BKN300
     FM230800 33003KT P6SM SCT200 BKN300=

USA.gov is the U.S. government's official web portal to all federal, state and local government web resources and services.